Petersville, Texas
Current Conditions -  °F | °C
As of 1:51 AM on Saturday 20 Dec 2014 (Local Time) from KVCT Reporting Station
Overcast Overcast  
Wind Chill: 11°   Ceiling: 1100
Heat Index: 11°   Visibility: 10mi
Dew Point:   Wind: 13mph
Humidity: 86%   Direction: 360°N
Pressure: 30.15"   Gusts: 24mph
Location:  29.2421°N, 97.0692°W
Report Text: KVCT 200751Z AUTO 36011G21KT 10SM OVC011 11/09 A3015 RMK AO2 SLP209 T01110089 $
Loading
Personal Weather Stations






























Interactive Weather Map New forecast layout! Learn more

10-Day Weather Forecast

Advertisements
Track Severe Weather on mobile